Time;durP1;ratioP1;P1;durP2;ratioP2;P2;SDS_P1;SDS_P2;PMS_P1;PMS_P2;Temp;Humidity;BMP_temperature;BMP_pressure;BME280_temperature;BME280_humidity;BME280_pressure;Samples;Min_cycle;Max_cycle;Signal;HPM_P1;HPM_P2
2022/06/01 00:00:40;;;;;;;2.30;1.70;;;;;;;;;;5073763;28;20197;-75
2022/06/01 00:03:07;;;;;;;3.73;1.77;;;;;;;;;;5053215;28;20648;-75
2022/06/01 00:05:34;;;;;;;2.07;1.70;;;;;;;;;;5044301;28;20207;-74
2022/06/01 00:08:02;;;;;;;2.60;1.90;;;;;;;;;;5054016;28;20228;-75
2022/06/01 00:10:29;;;;;;;2.63;1.87;;;;;;;;;;5037041;28;20242;-76
2022/06/01 00:12:56;;;;;;;2.63;1.60;;;;;;;;;;5073162;28;20234;-75
2022/06/01 00:15:26;;;;;;;3.07;2.03;;;;;;;;;;5072504;28;20242;-75
2022/06/01 00:17:57;;;;;;;2.50;1.90;;;;;;;;;;5056290;28;20261;-75
2022/06/01 00:20:24;;;;;;;2.03;1.73;;;;;;;;;;5053454;28;20243;-76
2022/06/01 00:22:51;;;;;;;4.93;2.20;;;;;;;;;;5051690;28;20235;-75
2022/06/01 00:25:18;;;;;;;2.17;1.90;;;;;;;;;;5032094;28;20229;-76
2022/06/01 00:27:46;;;;;;;4.07;2.10;;;;;;;;;;5033105;28;20339;-76
2022/06/01 00:30:14;;;;;;;2.63;1.87;;;;;;;;;;5041060;28;20199;-76
2022/06/01 00:32:43;;;;;;;3.57;1.87;;;;;;;;;;5053462;28;20239;-76
2022/06/01 00:35:11;;;;;;;3.33;1.70;;;;;;;;;;5056957;28;20247;-76
2022/06/01 00:37:38;;;;;;;2.53;1.80;;;;;;;;;;5035816;28;20230;-76
2022/06/01 00:40:07;;;;;;;2.80;2.00;;;;;;;;;;5047779;28;20220;-76
2022/06/01 00:42:36;;;;;;;4.90;2.20;;;;;;;;;;5073336;28;20286;-76
2022/06/01 00:45:03;;;;;;;5.17;3.23;;;;;;;;;;5067132;28;20275;-76
2022/06/01 00:47:30;;;;;;;4.13;2.60;;;;;;;;;;5073141;28;20358;-76
2022/06/01 00:50:00;;;;;;;5.17;2.90;;;;;;;;;;5072819;28;20656;-76
2022/06/01 00:52:37;;;;;;;2.67;2.30;;;;;;;;;;5073218;28;20676;-76
2022/06/01 00:55:10;;;;;;;3.77;2.37;;;;;;;;;;5064388;28;20199;-76
2022/06/01 00:57:37;;;;;;;3.17;2.30;;;;;;;;;;5053118;28;20314;-76
2022/06/01 01:00:06;;;;;;;2.73;2.13;;;;;;;;;;5052618;28;20232;-76
2022/06/01 01:02:33;;;;;;;2.93;2.50;;;;;;;;;;5057516;28;20769;-76
2022/06/01 01:05:03;;;;;;;4.30;2.37;;;;;;;;;;5057806;28;20224;-76
2022/06/01 01:07:31;;;;;;;3.40;2.33;;;;;;;;;;5052935;28;20252;-76
2022/06/01 01:09:58;;;;;;;2.63;2.30;;;;;;;;;;5051888;28;20718;-76
2022/06/01 01:12:25;;;;;;;4.33;2.10;;;;;;;;;;5053011;28;20931;-75
2022/06/01 01:14:54;;;;;;;4.80;2.33;;;;;;;;;;5072658;28;20292;-76
2022/06/01 01:17:21;;;;;;;3.70;2.50;;;;;;;;;;5066687;28;20217;-75
2022/06/01 01:19:51;;;;;;;2.47;2.27;;;;;;;;;;5033538;28;20241;-75
2022/06/01 01:22:33;;;;;;;4.57;2.17;;;;;;;;;;5033324;28;20204;-75
2022/06/01 01:25:22;;;;;;;4.13;2.70;;;;;;;;;;5045004;28;20229;-76
2022/06/01 01:27:51;;;;;;;4.23;2.30;;;;;;;;;;5042732;28;20195;-75
2022/06/01 01:30:43;;;;;;;4.63;2.57;;;;;;;;;;5051795;28;20672;-75
2022/06/01 01:33:11;;;;;;;4.77;2.53;;;;;;;;;;5046936;28;20227;-76
2022/06/01 01:35:39;;;;;;;2.67;2.37;;;;;;;;;;5047765;28;20361;-75
2022/06/01 01:38:12;;;;;;;4.23;2.60;;;;;;;;;;5044208;28;20221;-75
2022/06/01 01:40:40;;;;;;;3.17;2.23;;;;;;;;;;5031885;28;20227;-75
2022/06/01 01:43:08;;;;;;;2.40;2.13;;;;;;;;;;5031921;28;20602;-75
2022/06/01 01:45:37;;;;;;;3.10;2.40;;;;;;;;;;5035286;28;20240;-75
2022/06/01 01:48:05;;;;;;;3.33;2.60;;;;;;;;;;5032193;28;20225;-75
2022/06/01 01:50:32;;;;;;;4.10;2.40;;;;;;;;;;5047345;28;20233;-75
2022/06/01 01:52:59;;;;;;;4.53;2.80;;;;;;;;;;5053898;28;20626;-75
2022/06/01 01:55:33;;;;;;;4.00;2.60;;;;;;;;;;5071609;28;20202;-75
2022/06/01 01:58:06;;;;;;;3.13;2.70;;;;;;;;;;5071769;28;20310;-75
2022/06/01 02:00:35;;;;;;;3.27;2.60;;;;;;;;;;5062414;28;20256;-76
2022/06/01 02:03:04;;;;;;;3.30;2.50;;;;;;;;;;5032093;28;20204;-75
2022/06/01 02:08:25;;;;;;;3.30;2.80;;;;;;;;;;5050528;28;20206;-75
2022/06/01 02:13:40;;;;;;;4.03;2.93;;;;;;;;;;5051537;28;20658;-75
2022/06/01 02:16:08;;;;;;;4.47;2.57;;;;;;;;;;5065814;28;20202;-75
2022/06/01 02:18:41;;;;;;;4.93;3.03;;;;;;;;;;5071534;28;20251;-75
2022/06/01 02:21:10;;;;;;;3.67;2.70;;;;;;;;;;5071559;28;20627;-75
2022/06/01 02:23:39;;;;;;;2.70;2.30;;;;;;;;;;5043901;28;20695;-75
2022/06/01 02:26:06;;;;;;;2.90;2.60;;;;;;;;;;5054016;28;20227;-75
2022/06/01 02:28:34;;;;;;;3.13;2.50;;;;;;;;;;5071444;28;20965;-75
2022/06/01 02:31:03;;;;;;;2.73;2.13;;;;;;;;;;5071268;28;20627;-75
2022/06/01 02:33:33;;;;;;;4.47;2.67;;;;;;;;;;5071632;28;20227;-75
2022/06/01 02:36:01;;;;;;;3.00;2.40;;;;;;;;;;5057104;28;20222;-76
2022/06/01 02:38:31;;;;;;;3.90;2.73;;;;;;;;;;5058009;28;20649;-75
2022/06/01 02:41:01;;;;;;;4.57;2.63;;;;;;;;;;5071671;28;20199;-76
2022/06/01 02:43:28;;;;;;;4.33;2.70;;;;;;;;;;5071140;28;20646;-75
2022/06/01 02:45:56;;;;;;;5.23;2.50;;;;;;;;;;5058940;28;20802;-75
2022/06/01 02:48:25;;;;;;;3.37;2.50;;;;;;;;;;5055424;28;20200;-75
2022/06/01 02:50:52;;;;;;;2.77;2.47;;;;;;;;;;5054802;28;20204;-75
2022/06/01 02:53:20;;;;;;;2.97;2.73;;;;;;;;;;5051724;28;20195;-75
2022/06/01 02:55:47;;;;;;;3.40;2.60;;;;;;;;;;5058992;28;20243;-75
2022/06/01 02:58:14;;;;;;;3.97;2.67;;;;;;;;;;5049855;28;20247;-75
2022/06/01 03:00:41;;;;;;;5.53;2.97;;;;;;;;;;5076101;28;20236;-75
2022/06/01 03:03:09;;;;;;;4.60;3.00;;;;;;;;;;5069113;28;20204;-75
2022/06/01 03:05:39;;;;;;;4.03;2.40;;;;;;;;;;5053775;28;20719;-75
2022/06/01 03:08:07;;;;;;;5.03;2.70;;;;;;;;;;5055000;28;20246;-75
2022/06/01 03:10:34;;;;;;;3.90;2.90;;;;;;;;;;5055132;28;20287;-75
2022/06/01 03:13:03;;;;;;;3.37;2.90;;;;;;;;;;5058103;28;20221;-75
2022/06/01 03:15:31;;;;;;;3.17;2.80;;;;;;;;;;5074842;28;20195;-75
2022/06/01 03:17:58;;;;;;;3.50;2.93;;;;;;;;;;5074620;28;20710;-75
2022/06/01 03:20:27;;;;;;;4.30;3.03;;;;;;;;;;5074256;28;20285;-75
2022/06/01 03:22:56;;;;;;;3.40;2.87;;;;;;;;;;5045882;28;20206;-75
2022/06/01 03:25:24;;;;;;;4.60;2.83;;;;;;;;;;5034658;28;20232;-75
2022/06/01 03:27:53;;;;;;;4.37;3.10;;;;;;;;;;5063416;28;20575;-75
2022/06/01 03:30:22;;;;;;;3.40;3.07;;;;;;;;;;5068884;28;20203;-75
2022/06/01 03:32:49;;;;;;;3.50;3.10;;;;;;;;;;5069635;28;20215;-75
2022/06/01 03:35:19;;;;;;;3.80;3.30;;;;;;;;;;5054011;28;20270;-75
2022/06/01 03:37:46;;;;;;;6.30;3.30;;;;;;;;;;5054597;28;20292;-75
2022/06/01 03:40:16;;;;;;;3.10;2.70;;;;;;;;;;5046728;28;20224;-75
2022/06/01 03:42:43;;;;;;;3.87;2.93;;;;;;;;;;5033925;28;20613;-75
2022/06/01 03:47:56;;;;;;;5.70;3.17;;;;;;;;;;5043554;28;20231;-75
2022/06/01 03:50:24;;;;;;;3.63;3.10;;;;;;;;;;5033998;28;20202;-75
2022/06/01 03:52:52;;;;;;;4.50;2.83;;;;;;;;;;5034152;28;20254;-75
2022/06/01 03:55:22;;;;;;;4.20;3.00;;;;;;;;;;5034518;28;20239;-75
2022/06/01 03:57:49;;;;;;;4.30;3.47;;;;;;;;;;5047253;28;20682;-75
2022/06/01 04:00:20;;;;;;;5.03;3.60;;;;;;;;;;5053794;28;20238;-75
2022/06/01 04:02:48;;;;;;;4.20;3.60;;;;;;;;;;5053741;28;20287;-75
2022/06/01 04:05:15;;;;;;;5.43;3.93;;;;;;;;;;5046285;28;20200;-75
2022/06/01 04:07:43;;;;;;;7.87;4.07;;;;;;;;;;5033764;28;20672;-75
2022/06/01 04:10:10;;;;;;;6.00;3.83;;;;;;;;;;5044984;28;20294;-75
2022/06/01 04:12:40;;;;;;;4.33;3.30;;;;;;;;;;5057725;28;20624;-75
2022/06/01 04:15:08;;;;;;;3.33;2.70;;;;;;;;;;5073968;28;20381;-75
2022/06/01 04:17:35;;;;;;;4.27;2.63;;;;;;;;;;5061222;28;20533;-75
2022/06/01 04:20:03;;;;;;;3.70;3.10;;;;;;;;;;5052936;28;20251;-75
2022/06/01 04:22:30;;;;;;;5.60;3.37;;;;;;;;;;5053536;28;20238;-75
2022/06/01 04:24:57;;;;;;;5.00;3.20;;;;;;;;;;5053044;28;20290;-75
2022/06/01 04:27:24;;;;;;;6.10;3.70;;;;;;;;;;5058744;28;20685;-75
2022/06/01 04:29:53;;;;;;;5.07;3.87;;;;;;;;;;5056145;28;20265;-76
2022/06/01 04:32:25;;;;;;;4.57;3.57;;;;;;;;;;5052627;28;20326;-75
2022/06/01 04:34:52;;;;;;;4.07;3.63;;;;;;;;;;5066946;28;20290;-75
2022/06/01 04:37:19;;;;;;;4.17;3.70;;;;;;;;;;5055678;28;20238;-75
2022/06/01 04:39:46;;;;;;;4.53;3.53;;;;;;;;;;5055057;28;20321;-75
2022/06/01 04:42:14;;;;;;;4.00;3.50;;;;;;;;;;5067543;28;20245;-75
2022/06/01 04:44:41;;;;;;;5.00;3.63;;;;;;;;;;5047021;28;20669;-75
2022/06/01 04:47:10;;;;;;;5.20;3.73;;;;;;;;;;5033286;28;20233;-74
2022/06/01 04:49:38;;;;;;;7.03;3.47;;;;;;;;;;5045858;28;20280;-74
2022/06/01 04:52:06;;;;;;;4.23;3.30;;;;;;;;;;5032962;28;20202;-76
2022/06/01 04:54:33;;;;;;;4.07;3.60;;;;;;;;;;5049486;28;20251;-75
2022/06/01 04:57:00;;;;;;;4.57;3.60;;;;;;;;;;5050285;28;20293;-76
2022/06/01 04:59:27;;;;;;;6.87;4.07;;;;;;;;;;5071787;28;20271;-75
2022/06/01 05:01:55;;;;;;;6.20;3.83;;;;;;;;;;5051714;28;20239;-76
2022/06/01 05:04:23;;;;;;;4.83;3.77;;;;;;;;;;5047830;28;20235;-76
2022/06/01 05:06:50;;;;;;;4.13;3.40;;;;;;;;;;5037654;28;20196;-75
2022/06/01 05:09:18;;;;;;;4.83;3.80;;;;;;;;;;5044406;28;20224;-74
2022/06/01 05:11:45;;;;;;;4.87;3.97;;;;;;;;;;5038090;28;20367;-75
2022/06/01 05:14:12;;;;;;;5.30;4.67;;;;;;;;;;5052151;28;20202;-76
2022/06/01 05:16:39;;;;;;;5.00;4.07;;;;;;;;;;5051743;28;20386;-76
2022/06/01 05:19:07;;;;;;;6.63;4.80;;;;;;;;;;5052123;28;20255;-76
2022/06/01 05:21:35;;;;;;;5.93;4.53;;;;;;;;;;5052348;28;20266;-76
2022/06/01 05:24:02;;;;;;;5.63;5.03;;;;;;;;;;5043291;28;20200;-76
2022/06/01 05:26:32;;;;;;;6.27;4.77;;;;;;;;;;5038595;28;20311;-75
2022/06/01 05:29:00;;;;;;;7.33;4.90;;;;;;;;;;5048313;28;20368;-75
2022/06/01 05:31:27;;;;;;;6.03;4.60;;;;;;;;;;5045863;28;20236;-75
2022/06/01 05:33:54;;;;;;;5.47;4.10;;;;;;;;;;5064901;28;20282;-76
2022/06/01 05:36:21;;;;;;;5.77;4.27;;;;;;;;;;5041862;28;20236;-76
2022/06/01 05:38:50;;;;;;;5.70;4.07;;;;;;;;;;5047312;28;20263;-76
2022/06/01 05:41:17;;;;;;;4.30;3.90;;;;;;;;;;5044836;28;20583;-75
2022/06/01 05:43:49;;;;;;;4.57;3.70;;;;;;;;;;5039740;28;20238;-75
2022/06/01 05:46:16;;;;;;;5.80;3.30;;;;;;;;;;5034878;28;20210;-75
2022/06/01 05:48:43;;;;;;;3.40;3.10;;;;;;;;;;5038751;28;20198;-75
2022/06/01 05:51:11;;;;;;;3.80;3.20;;;;;;;;;;5050314;28;20283;-75
2022/06/01 05:53:38;;;;;;;5.17;3.73;;;;;;;;;;5045571;28;20791;-75
2022/06/01 05:56:07;;;;;;;5.63;3.10;;;;;;;;;;5038379;28;20196;-75
2022/06/01 05:58:34;;;;;;;5.13;2.97;;;;;;;;;;5041804;28;20758;-75
2022/06/01 06:01:03;;;;;;;4.07;2.90;;;;;;;;;;5037673;28;20197;-75
2022/06/01 06:03:30;;;;;;;3.53;3.20;;;;;;;;;;5042853;28;20303;-75
2022/06/01 06:08:43;;;;;;;4.73;2.80;;;;;;;;;;5038912;28;20211;-74
2022/06/01 06:11:13;;;;;;;4.13;3.10;;;;;;;;;;5037207;28;20284;-75
2022/06/01 06:13:40;;;;;;;4.07;2.70;;;;;;;;;;5044316;28;20283;-75
2022/06/01 06:16:07;;;;;;;5.27;3.00;;;;;;;;;;5039723;28;20299;-76
2022/06/01 06:18:34;;;;;;;4.43;2.97;;;;;;;;;;5041148;28;20302;-75
2022/06/01 06:21:02;;;;;;;3.15;2.80;;;;;;;;;;5045181;28;20290;-75
2022/06/01 06:23:29;;;;;;;3.72;2.38;;;;;;;;;;5038345;28;20287;-74
2022/06/01 06:25:57;;;;;;;4.80;2.90;;;;;;;;;;5037644;28;20293;-75
2022/06/01 06:28:26;;;;;;;3.03;2.70;;;;;;;;;;5034434;28;20723;-75
2022/06/01 06:30:53;;;;;;;4.93;2.90;;;;;;;;;;5045990;28;20602;-75
2022/06/01 06:33:20;;;;;;;4.00;2.60;;;;;;;;;;5045436;28;20235;-75
2022/06/01 06:35:56;;;;;;;5.03;2.80;;;;;;;;;;5044825;28;20591;-75
2022/06/01 06:38:26;;;;;;;4.65;2.95;;;;;;;;;;5038130;28;20725;-75
2022/06/01 06:40:54;;;;;;;3.47;2.78;;;;;;;;;;5037463;28;20648;-75
2022/06/01 06:43:21;;;;;;;4.15;2.88;;;;;;;;;;5048108;28;20227;-75
2022/06/01 06:45:51;;;;;;;5.63;2.78;;;;;;;;;;5049747;28;20319;-75
2022/06/01 06:48:18;;;;;;;3.90;2.67;;;;;;;;;;5039489;28;20205;-75
2022/06/01 06:50:45;;;;;;;4.13;2.90;;;;;;;;;;5051558;28;20223;-75
2022/06/01 06:53:12;;;;;;;3.88;2.65;;;;;;;;;;5039430;28;20200;-75
2022/06/01 06:55:40;;;;;;;4.50;2.60;;;;;;;;;;5046240;28;20621;-75
2022/06/01 06:58:08;;;;;;;3.50;2.30;;;;;;;;;;5048532;28;20539;-75
2022/06/01 07:00:35;;;;;;;2.53;2.28;;;;;;;;;;5032942;28;20220;-75
2022/06/01 07:03:04;;;;;;;4.45;1.77;;;;;;;;;;5034993;28;20269;-75
2022/06/01 07:08:16;;;;;;;2.33;1.50;;;;;;;;;;5045973;28;20194;-74
2022/06/01 07:10:44;;;;;;;2.08;1.60;;;;;;;;;;5033285;28;20235;-75
2022/06/01 07:13:11;;;;;;;3.72;1.48;;;;;;;;;;5049224;28;20638;-75
2022/06/01 07:15:38;;;;;;;3.22;1.50;;;;;;;;;;5039222;28;20239;-75
2022/06/01 07:18:07;;;;;;;2.05;1.73;;;;;;;;;;5043358;28;20200;-74
2022/06/01 07:20:35;;;;;;;4.32;1.70;;;;;;;;;;5036052;28;20777;-75
2022/06/01 07:23:02;;;;;;;2.47;1.60;;;;;;;;;;5045074;28;20590;-75
2022/06/01 07:25:30;;;;;;;3.15;1.60;;;;;;;;;;5031555;28;20204;-75
2022/06/01 07:27:57;;;;;;;3.65;1.67;;;;;;;;;;5035492;28;20269;-75
2022/06/01 07:30:25;;;;;;;4.70;2.50;;;;;;;;;;5045023;28;20192;-74
2022/06/01 07:32:52;;;;;;;4.38;3.05;;;;;;;;;;5049088;28;20231;-75
2022/06/01 07:35:21;;;;;;;4.72;2.90;;;;;;;;;;5047591;28;20283;-75
2022/06/01 07:43:20;;;;;;;4.32;3.53;;;;;;;;;;5040996;28;20200;-75
2022/06/01 07:45:49;;;;;;;3.88;3.10;;;;;;;;;;5048175;28;20322;-74
2022/06/01 07:48:17;;;;;;;2.92;1.60;;;;;;;;;;5033753;28;20239;-76
2022/06/01 07:50:46;;;;;;;1.70;1.40;;;;;;;;;;5038111;28;20192;-75
2022/06/01 07:53:13;;;;;;;2.78;1.70;;;;;;;;;;5049609;28;20204;-75
2022/06/01 07:55:41;;;;;;;2.22;1.50;;;;;;;;;;5035681;28;20291;-75
2022/06/01 07:58:09;;;;;;;2.90;1.92;;;;;;;;;;5050183;28;20211;-75
2022/06/01 08:00:36;;;;;;;2.55;1.65;;;;;;;;;;5043317;28;20697;-75
2022/06/01 08:03:04;;;;;;;2.25;1.20;;;;;;;;;;5040293;28;20228;-75
2022/06/01 08:05:31;;;;;;;2.40;1.30;;;;;;;;;;5048952;28;20219;-75
2022/06/01 08:08:00;;;;;;;2.15;1.20;;;;;;;;;;5049552;28;20228;-75
2022/06/01 08:10:27;;;;;;;2.13;1.20;;;;;;;;;;5042732;28;20232;-75
2022/06/01 08:13:09;;;;;;;3.25;1.23;;;;;;;;;;5039839;28;20287;-75
2022/06/01 08:15:38;;;;;;;2.17;1.08;;;;;;;;;;5040789;28;20649;-75
2022/06/01 08:18:06;;;;;;;3.97;1.30;;;;;;;;;;5051550;28;20200;-75
2022/06/01 08:20:33;;;;;;;3.90;1.30;;;;;;;;;;5036977;28;20715;-75
2022/06/01 08:23:02;;;;;;;6.88;1.60;;;;;;;;;;5037402;28;20201;-75
2022/06/01 08:25:30;;;;;;;3.15;1.30;;;;;;;;;;5051122;28;20232;-75
2022/06/01 08:27:57;;;;;;;2.17;1.20;;;;;;;;;;5044602;28;20293;-75
2022/06/01 08:30:26;;;;;;;1.75;1.20;;;;;;;;;;5043007;28;20224;-75
2022/06/01 08:32:53;;;;;;;3.50;1.80;;;;;;;;;;5034592;28;20239;-75
2022/06/01 08:35:22;;;;;;;1.15;1.00;;;;;;;;;;5042105;28;20192;-75
2022/06/01 08:37:49;;;;;;;2.13;0.95;;;;;;;;;;5052337;28;20690;-75
2022/06/01 08:40:19;;;;;;;1.88;0.90;;;;;;;;;;5043038;28;20259;-75
2022/06/01 08:42:50;;;;;;;2.10;0.70;;;;;;;;;;5045546;28;20269;-75
2022/06/01 08:45:17;;;;;;;0.90;0.68;;;;;;;;;;5046067;28;20235;-75
2022/06/01 08:47:45;;;;;;;1.50;0.80;;;;;;;;;;5040786;28;20285;-76
2022/06/01 08:50:16;;;;;;;1.75;0.77;;;;;;;;;;5050819;28;20616;-76
2022/06/01 08:52:43;;;;;;;2.33;1.10;;;;;;;;;;5037951;28;20684;-76
2022/06/01 08:55:10;;;;;;;1.67;0.90;;;;;;;;;;5043216;28;20378;-77
2022/06/01 08:57:45;;;;;;;2.65;1.10;;;;;;;;;;5051522;28;20204;-76
2022/06/01 09:00:14;;;;;;;2.63;1.20;;;;;;;;;;5040955;28;20264;-77
2022/06/01 09:02:45;;;;;;;3.70;1.40;;;;;;;;;;5036223;28;20281;-77
2022/06/01 09:05:15;;;;;;;1.52;1.20;;;;;;;;;;5043344;28;20283;-77
2022/06/01 09:07:44;;;;;;;3.05;1.30;;;;;;;;;;5043349;28;20367;-77
2022/06/01 09:10:29;;;;;;;2.33;1.30;;;;;;;;;;5047955;28;20210;-78
2022/06/01 09:13:00;;;;;;;3.58;1.20;;;;;;;;;;4989768;28;20397;-77
2022/06/01 09:15:29;;;;;;;1.05;0.95;;;;;;;;;;4989149;28;20204;-77
2022/06/01 09:17:57;;;;;;;3.13;1.10;;;;;;;;;;4989281;28;20252;-77
2022/06/01 09:23:11;;;;;;;1.77;1.00;;;;;;;;;;4991413;28;21370;-77
2022/06/01 09:25:39;;;;;;;2.22;1.13;;;;;;;;;;4989514;28;20198;-77
2022/06/01 09:28:19;;;;;;;1.80;0.90;;;;;;;;;;4989390;28;20593;-77
2022/06/01 09:30:51;;;;;;;1.63;0.90;;;;;;;;;;4981305;28;20193;-78
2022/06/01 09:33:23;;;;;;;2.58;1.10;;;;;;;;;;4989321;28;20296;-78
2022/06/01 09:36:13;;;;;;;0.80;0.80;;;;;;;;;;4983220;28;20237;-78
2022/06/01 09:38:42;;;;;;;1.75;1.00;;;;;;;;;;4988033;28;20292;-78
2022/06/01 09:41:10;;;;;;;2.45;1.00;;;;;;;;;;4988908;28;20218;-78
2022/06/01 09:43:41;;;;;;;4.53;0.90;;;;;;;;;;4989275;28;20292;-78
2022/06/01 09:46:09;;;;;;;3.25;1.20;;;;;;;;;;4989473;28;20216;-77
2022/06/01 09:48:37;;;;;;;2.88;1.17;;;;;;;;;;4987977;28;20254;-78
2022/06/01 09:51:11;;;;;;;2.72;1.02;;;;;;;;;;5028400;28;20231;-77
2022/06/01 09:53:41;;;;;;;3.63;1.20;;;;;;;;;;5049251;28;20226;-78
2022/06/01 09:56:09;;;;;;;2.60;1.20;;;;;;;;;;5050248;28;20196;-76
2022/06/01 10:06:55;;;;;;;1.88;0.90;;;;;;;;;;5033249;28;20203;-77
2022/06/01 10:09:25;;;;;;;1.27;0.93;;;;;;;;;;5031454;28;20228;-78
2022/06/01 10:11:52;;;;;;;2.63;1.20;;;;;;;;;;5031064;28;20196;-78
2022/06/01 10:14:21;;;;;;;1.42;0.90;;;;;;;;;;5031353;28;20227;-78
2022/06/01 10:16:58;;;;;;;2.05;0.90;;;;;;;;;;5031493;28;20302;-78
2022/06/01 10:19:29;;;;;;;2.08;1.00;;;;;;;;;;5032204;28;20279;-77
2022/06/01 10:21:59;;;;;;;1.55;1.20;;;;;;;;;;5031587;28;20227;-78
2022/06/01 10:24:28;;;;;;;2.42;1.05;;;;;;;;;;5044283;28;20227;-78
2022/06/01 10:26:59;;;;;;;4.10;1.05;;;;;;;;;;5045806;28;20694;-78
2022/06/01 10:29:27;;;;;;;1.15;0.98;;;;;;;;;;5047599;28;20203;-78
2022/06/01 10:31:56;;;;;;;2.72;1.08;;;;;;;;;;5045934;28;20776;-77
2022/06/01 10:34:28;;;;;;;1.27;0.88;;;;;;;;;;5044074;28;20203;-78
2022/06/01 10:36:58;;;;;;;3.60;1.08;;;;;;;;;;5042179;28;20299;-78
2022/06/01 10:39:27;;;;;;;1.90;1.23;;;;;;;;;;5040437;28;20302;-78
2022/06/01 10:42:00;;;;;;;1.55;0.98;;;;;;;;;;5038708;28;20216;-78
2022/06/01 10:44:31;;;;;;;2.22;1.05;;;;;;;;;;5032334;28;20323;-78
2022/06/01 10:47:01;;;;;;;2.80;1.40;;;;;;;;;;5046243;28;20658;-78
2022/06/01 10:49:38;;;;;;;2.28;1.05;;;;;;;;;;5054619;28;20231;-78
2022/06/01 10:52:08;;;;;;;1.70;1.10;;;;;;;;;;5046279;28;20284;-78
2022/06/01 10:54:40;;;;;;;2.17;1.02;;;;;;;;;;5040509;28;20200;-78
2022/06/01 10:57:09;;;;;;;3.67;0.90;;;;;;;;;;5047023;28;20282;-79
2022/06/01 10:59:37;;;;;;;2.33;1.02;;;;;;;;;;5042199;28;20258;-78
2022/06/01 11:02:08;;;;;;;3.05;1.20;;;;;;;;;;5045888;28;20572;-77
2022/06/01 11:04:46;;;;;;;2.03;1.25;;;;;;;;;;5040950;28;20241;-78
2022/06/01 11:07:31;;;;;;;1.95;1.13;;;;;;;;;;5066641;28;20195;-77
2022/06/01 11:10:04;;;;;;;1.73;1.13;;;;;;;;;;5055677;28;20244;-76
2022/06/01 11:12:35;;;;;;;2.50;1.20;;;;;;;;;;5049007;28;20211;-78
2022/06/01 11:15:08;;;;;;;1.45;0.90;;;;;;;;;;5044782;28;20193;-79
2022/06/01 11:17:38;;;;;;;1.88;1.08;;;;;;;;;;5044879;28;20215;-77
2022/06/01 11:20:14;;;;;;;1.50;1.00;;;;;;;;;;5051507;28;20250;-78
2022/06/01 11:22:49;;;;;;;2.40;1.10;;;;;;;;;;5041948;28;20231;-78
2022/06/01 11:25:20;;;;;;;3.28;1.55;;;;;;;;;;5046451;28;20693;-78
2022/06/01 11:27:55;;;;;;;1.92;1.13;;;;;;;;;;5040629;28;20196;-78
2022/06/01 11:30:24;;;;;;;1.95;1.13;;;;;;;;;;5054805;28;20223;-78
2022/06/01 11:32:54;;;;;;;3.35;1.05;;;;;;;;;;5065961;28;20235;-78
2022/06/01 11:35:28;;;;;;;1.45;1.00;;;;;;;;;;5049512;28;20897;-80
2022/06/01 11:37:59;;;;;;;1.75;0.95;;;;;;;;;;5044067;28;20298;-77
2022/06/01 11:40:32;;;;;;;2.33;1.00;;;;;;;;;;5057657;28;20711;-78
2022/06/01 11:43:03;;;;;;;1.60;0.90;;;;;;;;;;5049734;28;20231;-80
2022/06/01 11:45:34;;;;;;;3.53;1.00;;;;;;;;;;5044385;28;20314;-77
2022/06/01 11:48:03;;;;;;;2.00;1.10;;;;;;;;;;5049916;28;20235;-77
2022/06/01 11:50:47;;;;;;;3.72;0.90;;;;;;;;;;5044901;28;20228;-77
2022/06/01 11:53:21;;;;;;;2.10;1.20;;;;;;;;;;5042860;28;20575;-77
2022/06/01 11:55:49;;;;;;;1.08;0.98;;;;;;;;;;5045329;28;20198;-77
2022/06/01 11:58:22;;;;;;;1.95;1.17;;;;;;;;;;5047863;28;20204;-78
2022/06/01 12:00:57;;;;;;;1.65;0.93;;;;;;;;;;5044448;28;20688;-78
2022/06/01 12:03:39;;;;;;;1.50;1.17;;;;;;;;;;5045542;28;20204;-78
2022/06/01 12:06:08;;;;;;;1.67;0.90;;;;;;;;;;5045620;28;20215;-77
2022/06/01 12:08:41;;;;;;;1.73;1.00;;;;;;;;;;5049760;28;20261;-78
2022/06/01 12:11:11;;;;;;;1.98;1.10;;;;;;;;;;5048527;28;20192;-78
2022/06/01 12:13:51;;;;;;;1.13;0.90;;;;;;;;;;5043852;28;20227;-78
2022/06/01 12:16:21;;;;;;;1.75;0.90;;;;;;;;;;5047909;28;20200;-77
2022/06/01 12:19:04;;;;;;;3.20;1.05;;;;;;;;;;5044530;28;20266;-78
2022/06/01 12:21:34;;;;;;;2.72;1.00;;;;;;;;;;5050691;28;20223;-78
2022/06/01 12:29:59;;;;;;;1.88;1.00;;;;;;;;;;5050012;28;20202;-78
2022/06/01 12:32:27;;;;;;;2.25;1.02;;;;;;;;;;5059080;28;20277;-78
2022/06/01 12:35:02;;;;;;;2.95;1.00;;;;;;;;;;5043768;28;20231;-78
2022/06/01 12:37:34;;;;;;;1.50;1.00;;;;;;;;;;5049211;28;20625;-78
2022/06/01 12:40:06;;;;;;;2.63;1.00;;;;;;;;;;5046970;28;20874;-78
2022/06/01 12:42:36;;;;;;;3.17;1.10;;;;;;;;;;5048420;28;20277;-77
2022/06/01 12:45:06;;;;;;;1.73;1.05;;;;;;;;;;5044602;28;20228;-78
2022/06/01 12:47:34;;;;;;;1.88;1.02;;;;;;;;;;5050857;28;20295;-77
2022/06/01 12:50:10;;;;;;;1.90;1.10;;;;;;;;;;5041862;28;20287;-77
2022/06/01 12:52:37;;;;;;;1.92;1.05;;;;;;;;;;5034066;28;20224;-77
2022/06/01 12:55:07;;;;;;;1.85;0.90;;;;;;;;;;5051400;28;20686;-76
2022/06/01 12:57:37;;;;;;;2.00;1.02;;;;;;;;;;5040402;28;20231;-77
2022/06/01 13:00:07;;;;;;;2.08;1.00;;;;;;;;;;5046786;28;20290;-77
2022/06/01 13:02:36;;;;;;;1.45;0.93;;;;;;;;;;5042224;28;20215;-76
2022/06/01 13:05:05;;;;;;;2.20;0.93;;;;;;;;;;5044774;28;20633;-76
2022/06/01 13:07:33;;;;;;;2.85;1.13;;;;;;;;;;5040505;28;20224;-77
2022/06/01 13:10:02;;;;;;;2.22;1.08;;;;;;;;;;5048245;28;20291;-76
2022/06/01 13:12:32;;;;;;;1.13;0.90;;;;;;;;;;5046831;28;20197;-76
2022/06/01 13:15:10;;;;;;;1.60;1.05;;;;;;;;;;5041297;28;20643;-77
2022/06/01 13:17:46;;;;;;;1.80;1.00;;;;;;;;;;5040314;28;20289;-76
2022/06/01 13:20:14;;;;;;;1.63;0.98;;;;;;;;;;5040796;28;20265;-77
2022/06/01 13:22:42;;;;;;;2.33;0.90;;;;;;;;;;5042470;28;20332;-76
2022/06/01 13:25:13;;;;;;;2.30;1.08;;;;;;;;;;5045966;28;20211;-77
2022/06/01 13:27:43;;;;;;;1.63;0.73;;;;;;;;;;5041904;28;20204;-76
2022/06/01 13:30:14;;;;;;;2.08;0.90;;;;;;;;;;5048667;28;20207;-77
2022/06/01 13:32:43;;;;;;;1.52;1.00;;;;;;;;;;5037903;28;20334;-76
2022/06/01 13:35:19;;;;;;;1.25;0.85;;;;;;;;;;5039032;28;20258;-77
2022/06/01 13:37:47;;;;;;;1.67;1.05;;;;;;;;;;5034080;28;20247;-76
2022/06/01 13:40:22;;;;;;;2.72;0.90;;;;;;;;;;5045553;28;20205;-76
2022/06/01 13:42:52;;;;;;;1.17;0.80;;;;;;;;;;5046489;28;20306;-77
2022/06/01 13:45:20;;;;;;;2.72;1.10;;;;;;;;;;5039334;28;20326;-77
2022/06/01 13:47:53;;;;;;;3.60;0.90;;;;;;;;;;5043262;28;20307;-76
2022/06/01 13:50:24;;;;;;;2.00;1.17;;;;;;;;;;5033551;28;20578;-78
2022/06/01 13:53:02;;;;;;;2.20;0.90;;;;;;;;;;5034374;28;20734;-76
2022/06/01 13:55:30;;;;;;;2.92;1.17;;;;;;;;;;5037739;28;20226;-76
2022/06/01 13:58:08;;;;;;;1.48;0.90;;;;;;;;;;5038813;28;20697;-77
2022/06/01 14:00:38;;;;;;;1.27;0.98;;;;;;;;;;5043593;28;20214;-76
2022/06/01 14:03:13;;;;;;;2.55;1.00;;;;;;;;;;5053790;28;20261;-77
2022/06/01 14:05:45;;;;;;;1.48;0.88;;;;;;;;;;5041781;28;20274;-77
2022/06/01 14:08:14;;;;;;;2.50;1.23;;;;;;;;;;5034886;28;20295;-76
2022/06/01 14:10:45;;;;;;;2.05;0.98;;;;;;;;;;5041301;28;20215;-76
2022/06/01 14:13:14;;;;;;;2.25;1.10;;;;;;;;;;5041567;28;20227;-76
2022/06/01 14:15:41;;;;;;;2.78;1.20;;;;;;;;;;5037740;28;20236;-78
2022/06/01 14:18:09;;;;;;;2.83;0.90;;;;;;;;;;5039910;28;20228;-78
2022/06/01 14:20:36;;;;;;;3.05;1.20;;;;;;;;;;5046966;28;20196;-79
2022/06/01 14:23:04;;;;;;;2.72;1.08;;;;;;;;;;5049935;28;20772;-79
2022/06/01 14:28:30;;;;;;;5.65;1.00;;;;;;;;;;5033697;28;20206;-78
2022/06/01 14:30:57;;;;;;;4.07;1.00;;;;;;;;;;5049690;28;20196;-79
2022/06/01 14:33:24;;;;;;;3.50;0.90;;;;;;;;;;5043133;28;20746;-78
2022/06/01 14:35:53;;;;;;;1.60;0.93;;;;;;;;;;5039421;28;20315;-77
2022/06/01 14:38:20;;;;;;;3.30;0.98;;;;;;;;;;5043219;28;20295;-79
2022/06/01 14:40:48;;;;;;;2.80;1.30;;;;;;;;;;5036699;28;20204;-78
2022/06/01 14:43:16;;;;;;;3.60;1.10;;;;;;;;;;5038820;28;20220;-78
2022/06/01 14:45:45;;;;;;;1.73;1.00;;;;;;;;;;5051237;28;20230;-77
2022/06/01 14:48:12;;;;;;;1.80;1.02;;;;;;;;;;5060564;28;20298;-77
2022/06/01 14:50:39;;;;;;;1.92;0.85;;;;;;;;;;5046035;28;20231;-77
2022/06/01 14:53:07;;;;;;;2.75;1.20;;;;;;;;;;5046051;28;20223;-77
2022/06/01 14:55:35;;;;;;;2.72;0.95;;;;;;;;;;5054111;28;20285;-77
2022/06/01 14:58:02;;;;;;;1.30;0.90;;;;;;;;;;5045357;28;20283;-77
2022/06/01 15:00:29;;;;;;;2.20;1.08;;;;;;;;;;5051160;28;20288;-78
2022/06/01 15:02:58;;;;;;;2.25;1.10;;;;;;;;;;5046356;28;20223;-78
2022/06/01 15:05:27;;;;;;;1.30;0.90;;;;;;;;;;5049778;28;20223;-78
2022/06/01 15:07:54;;;;;;;3.50;1.00;;;;;;;;;;5047891;28;20201;-77
2022/06/01 15:10:21;;;;;;;1.63;0.90;;;;;;;;;;5042798;28;20238;-77
2022/06/01 15:12:49;;;;;;;2.10;1.05;;;;;;;;;;5045684;28;20668;-77
2022/06/01 15:15:17;;;;;;;2.55;1.00;;;;;;;;;;5049240;28;20215;-77
2022/06/01 15:17:44;;;;;;;2.03;0.98;;;;;;;;;;5042640;28;20230;-77
2022/06/01 15:20:15;;;;;;;1.15;0.95;;;;;;;;;;5039461;28;20205;-78
2022/06/01 15:22:42;;;;;;;2.13;1.00;;;;;;;;;;5039303;28;20229;-78
2022/06/01 15:25:10;;;;;;;1.67;1.00;;;;;;;;;;5038264;28;20266;-78
2022/06/01 15:27:38;;;;;;;2.83;1.00;;;;;;;;;;5046933;28;20206;-78
2022/06/01 15:41:07;;;;;;;3.38;1.27;;;;;;;;;;5044305;28;20210;-78
2022/06/01 15:43:34;;;;;;;2.38;1.05;;;;;;;;;;5049298;28;20759;-77
2022/06/01 15:46:01;;;;;;;1.67;1.10;;;;;;;;;;5037017;28;20256;-77